Shepton Mallet, United Kingdom
Current Conditions -  °F | °C
As of 4:50 PM on Sunday 23 Nov 2014 (Local Time) from EGDY Reporting Station
Broken Clouds Broken Clouds  
Wind Chill: 42°   Ceiling: 20000
Heat Index: 45°   Visibility: 6mi
Dew Point: 43°   Wind: 5mph
Humidity: 93%   Direction: 330°NNW
Pressure: 30.09"   Gusts: NA
Location:  51.19°N, 2.55°W
Report Text: EGDY 231650Z AUTO 33004KT 9999 BKN200/// 07/06 Q1019
Loading
Personal Weather Stations






























Interactive Weather Map New forecast layout! Learn more

10-Day Weather Forecast

Advertisements
Track Severe Weather on mobile